Time;durP1;ratioP1;P1;durP2;ratioP2;P2;SDS_P1;SDS_P2;PMS_P1;PMS_P2;Temp;Humidity;BMP_temperature;BMP_pressure;BME280_temperature;BME280_humidity;BME280_pressure;Samples;Min_cycle;Max_cycle;Signal;HPM_P1;HPM_P2
2021/01/30 00:00:34;;;;;;;2.83;0.53;;;7.50;1.00;;;;;;5043267;28;21001;-74
2021/01/30 00:03:03;;;;;;;0.93;0.77;;;7.40;1.00;;;;;;5045249;28;21049;-74
2021/01/30 00:05:30;;;;;;;0.97;0.70;;;7.50;1.00;;;;;;5032038;28;20468;-75
2021/01/30 00:08:07;;;;;;;2.10;0.87;;;7.50;1.00;;;;;;5046717;28;20490;-74
2021/01/30 00:10:35;;;;;;;1.20;1.00;;;7.50;1.00;;;;;;5044561;28;20551;-73
2021/01/30 00:13:04;;;;;;;1.33;1.17;;;7.40;1.00;;;;;;5046778;28;20952;-75
2021/01/30 00:15:32;;;;;;;2.00;0.90;;;7.40;1.00;;;;;;5046656;28;20966;-74
2021/01/30 00:18:01;;;;;;;0.60;0.60;;;7.40;1.00;;;;;;5045699;28;20562;-77
2021/01/30 00:20:31;;;;;;;0.57;0.57;;;7.30;1.00;;;;;;5042898;28;20470;-75
2021/01/30 00:23:01;;;;;;;0.60;0.60;;;7.30;1.00;;;;;;5046889;28;21346;-75
2021/01/30 00:25:31;;;;;;;0.50;0.50;;;7.30;1.00;;;;;;5044375;28;20463;-75
2021/01/30 00:27:59;;;;;;;1.10;0.63;;;7.30;1.00;;;;;;5046358;28;20499;-75
2021/01/30 00:30:29;;;;;;;0.80;0.60;;;7.30;1.00;;;;;;5046338;28;21112;-74
2021/01/30 00:32:59;;;;;;;2.53;0.80;;;7.30;1.00;;;;;;5045116;28;20469;-74
2021/01/30 00:35:30;;;;;;;0.97;0.77;;;7.30;1.00;;;;;;5045104;28;20472;-75
2021/01/30 00:37:57;;;;;;;1.90;0.70;;;7.30;1.00;;;;;;5043407;28;20495;-73
2021/01/30 00:40:25;;;;;;;0.50;0.50;;;7.40;1.00;;;;;;5045588;28;20459;-74
2021/01/30 00:42:53;;;;;;;1.60;0.67;;;7.40;1.00;;;;;;5037962;28;20467;-74
2021/01/30 00:45:22;;;;;;;0.60;0.50;;;7.50;1.00;;;;;;5045338;28;20500;-74
2021/01/30 00:47:50;;;;;;;0.70;0.50;;;7.30;1.00;;;;;;5046087;28;20509;-75
2021/01/30 00:50:20;;;;;;;0.50;0.50;;;7.20;1.00;;;;;;5044963;28;20521;-74
2021/01/30 00:52:47;;;;;;;1.90;0.70;;;7.20;1.00;;;;;;5045408;28;20470;-73
2021/01/30 00:55:17;;;;;;;0.60;0.57;;;7.10;1.00;;;;;;5046403;28;20499;-75
2021/01/30 00:57:45;;;;;;;1.02;0.60;;;7.20;1.00;;;;;;5045113;28;20934;-75
2021/01/30 01:00:14;;;;;;;1.10;0.70;;;7.20;1.00;;;;;;5037282;28;20468;-73
2021/01/30 01:02:41;;;;;;;0.90;0.63;;;7.20;1.00;;;;;;5037521;28;20496;-74
2021/01/30 01:05:12;;;;;;;2.30;0.50;;;7.10;1.00;;;;;;5037089;28;20561;-73
2021/01/30 01:07:39;;;;;;;1.37;0.60;;;7.20;1.00;;;;;;5036857;28;20493;-73
2021/01/30 01:10:07;;;;;;;0.60;0.60;;;7.10;1.00;;;;;;5037454;28;20478;-73
2021/01/30 01:12:34;;;;;;;1.13;0.70;;;6.90;1.00;;;;;;5035454;28;20470;-74
2021/01/30 01:15:02;;;;;;;0.70;0.50;;;6.90;1.00;;;;;;5038725;28;20214;-74
2021/01/30 01:17:29;;;;;;;0.60;0.57;;;6.80;1.00;;;;;;5038710;28;20477;-74
2021/01/30 01:19:56;;;;;;;1.90;0.60;;;6.80;1.00;;;;;;5045078;28;20477;-73
2021/01/30 01:22:24;;;;;;;1.60;0.50;;;6.80;1.00;;;;;;5043946;28;20467;-74
2021/01/30 01:24:52;;;;;;;0.47;0.47;;;6.70;1.00;;;;;;5044706;28;21020;-74
2021/01/30 01:27:19;;;;;;;0.90;0.60;;;6.80;1.00;;;;;;5043602;28;20488;-74
2021/01/30 01:29:48;;;;;;;0.90;0.40;;;6.80;1.00;;;;;;5036874;28;20450;-74
2021/01/30 01:32:15;;;;;;;1.23;0.50;;;6.70;1.00;;;;;;5034676;28;20503;-74
2021/01/30 01:34:43;;;;;;;0.40;0.40;;;6.60;1.00;;;;;;5041009;28;20490;-74
2021/01/30 01:37:11;;;;;;;1.00;0.50;;;6.60;1.00;;;;;;5038628;28;21047;-72
2021/01/30 01:39:40;;;;;;;0.40;0.40;;;6.50;1.00;;;;;;5043399;28;20492;-73
2021/01/30 01:42:12;;;;;;;1.03;0.40;;;6.50;1.00;;;;;;5043406;28;20468;-72
2021/01/30 01:44:40;;;;;;;0.50;0.50;;;6.40;5.70;;;;;;5044002;28;20499;-73
2021/01/30 01:47:10;;;;;;;0.50;0.50;;;6.40;9.10;;;;;;5044197;28;20561;-72
2021/01/30 01:49:40;;;;;;;0.40;0.40;;;6.40;11.40;;;;;;5045203;28;20476;-74
2021/01/30 01:52:16;;;;;;;0.63;0.40;;;6.40;20.50;;;;;;5043374;28;20461;-73
2021/01/30 01:54:43;;;;;;;0.50;0.50;;;6.30;26.20;;;;;;5042079;28;20510;-73
2021/01/30 01:57:14;;;;;;;0.87;0.40;;;6.30;25.10;;;;;;5044707;28;21099;-73
2021/01/30 01:59:46;;;;;;;0.80;0.40;;;6.30;28.10;;;;;;5042530;28;20500;-73
2021/01/30 02:02:14;;;;;;;0.40;0.40;;;6.30;28.00;;;;;;5040658;28;20480;-73
2021/01/30 02:04:47;;;;;;;0.47;0.47;;;6.40;27.70;;;;;;5037516;28;20962;-74
2021/01/30 02:07:14;;;;;;;0.40;0.40;;;6.40;25.70;;;;;;5037236;28;20493;-73
2021/01/30 02:09:41;;;;;;;0.40;0.40;;;6.40;12.90;;;;;;5043377;28;20970;-74
2021/01/30 02:12:13;;;;;;;0.80;0.40;;;6.40;15.00;;;;;;5037894;28;20464;-73
2021/01/30 02:14:44;;;;;;;0.40;0.40;;;6.40;13.80;;;;;;5046211;28;21019;-73
2021/01/30 02:17:32;;;;;;;0.40;0.40;;;6.40;18.90;;;;;;5045245;28;20485;-73
2021/01/30 02:20:37;;;;;;;0.60;0.40;;;6.40;19.90;;;;;;5046381;28;20493;-73
2021/01/30 02:23:33;;;;;;;0.45;0.40;;;6.30;28.80;;;;;;5038089;28;20894;-74
2021/01/30 02:26:40;;;;;;;0.47;0.40;;;6.20;35.40;;;;;;5033456;28;20295;-74
2021/01/30 02:29:34;;;;;;;0.40;0.40;;;6.20;42.10;;;;;;5041398;28;20466;-72
2021/01/30 02:32:22;;;;;;;0.40;0.40;;;6.30;36.20;;;;;;5044675;28;20536;-73
2021/01/30 02:35:10;;;;;;;0.40;0.40;;;6.30;35.30;;;;;;5040619;28;20463;-74
2021/01/30 02:37:45;;;;;;;0.43;0.40;;;6.20;33.60;;;;;;5043864;28;20539;-73
2021/01/30 02:40:16;;;;;;;0.50;0.40;;;6.20;30.60;;;;;;5045518;28;20487;-74
2021/01/30 02:42:50;;;;;;;0.50;0.50;;;6.20;29.80;;;;;;5048638;28;20470;-73
2021/01/30 02:45:22;;;;;;;0.70;0.52;;;6.20;33.70;;;;;;5047307;28;20240;-73
2021/01/30 02:47:56;;;;;;;0.40;0.40;;;6.10;34.10;;;;;;5041198;28;20236;-74
2021/01/30 02:50:28;;;;;;;0.50;0.50;;;6.10;42.30;;;;;;5039293;28;20778;-73
2021/01/30 02:52:59;;;;;;;1.53;0.50;;;6.10;45.80;;;;;;5046400;28;20459;-73
2021/01/30 02:55:28;;;;;;;2.70;0.80;;;6.10;46.30;;;;;;5045275;28;20880;-73
2021/01/30 02:57:57;;;;;;;0.57;0.50;;;6.10;48.70;;;;;;5042723;28;20521;-73
2021/01/30 03:00:26;;;;;;;1.50;0.98;;;6.10;47.60;;;;;;5046142;28;20481;-73
2021/01/30 03:02:54;;;;;;;0.50;0.50;;;6.10;47.60;;;;;;5048760;28;20204;-74
2021/01/30 03:05:22;;;;;;;0.60;0.60;;;6.10;40.90;;;;;;5044686;28;20475;-74
2021/01/30 03:08:23;;;;;;;0.60;0.60;;;6.10;47.70;;;;;;5047378;28;20514;-74
2021/01/30 03:10:57;;;;;;;0.50;0.50;;;6.10;51.50;;;;;;5042598;28;20224;-74
2021/01/30 03:13:29;;;;;;;0.97;0.50;;;6.10;47.00;;;;;;5045095;28;20459;-74
2021/01/30 03:16:01;;;;;;;0.60;0.60;;;6.10;47.50;;;;;;5049812;28;20514;-74
2021/01/30 03:18:32;;;;;;;1.00;0.50;;;6.20;43.90;;;;;;5041561;28;20230;-73
2021/01/30 03:21:00;;;;;;;0.40;0.40;;;6.30;35.40;;;;;;5039802;28;20444;-73
2021/01/30 03:23:28;;;;;;;1.10;0.60;;;6.30;29.70;;;;;;5041310;28;20567;-73
2021/01/30 03:25:56;;;;;;;0.43;0.43;;;6.30;31.60;;;;;;5049523;28;20290;-74
2021/01/30 03:28:24;;;;;;;0.40;0.40;;;6.30;28.40;;;;;;5043273;28;20498;-74
2021/01/30 03:30:51;;;;;;;0.77;0.40;;;6.30;26.30;;;;;;5046666;28;20207;-75
2021/01/30 03:33:19;;;;;;;0.82;0.40;;;6.10;38.30;;;;;;5042359;28;20469;-74
2021/01/30 03:35:46;;;;;;;1.05;0.50;;;6.20;44.20;;;;;;5045618;28;20256;-74
2021/01/30 03:38:13;;;;;;;0.53;0.50;;;6.20;44.80;;;;;;5040517;28;20220;-74
2021/01/30 03:40:43;;;;;;;0.75;0.50;;;6.30;45.30;;;;;;5045168;28;20484;-74
2021/01/30 03:43:12;;;;;;;0.70;0.60;;;6.30;45.90;;;;;;5045808;28;20681;-74
2021/01/30 03:45:39;;;;;;;0.40;0.40;;;6.30;46.10;;;;;;5041011;28;20213;-74
2021/01/30 03:48:07;;;;;;;0.70;0.50;;;6.40;37.80;;;;;;5039478;28;21243;-73
2021/01/30 03:50:35;;;;;;;0.50;0.50;;;6.20;47.10;;;;;;5039951;28;20487;-73
2021/01/30 03:53:04;;;;;;;0.43;0.43;;;6.20;52.50;;;;;;5039656;28;20461;-74
2021/01/30 03:55:31;;;;;;;1.63;0.60;;;6.30;48.60;;;;;;5045464;28;20882;-74
2021/01/30 03:58:00;;;;;;;1.90;0.57;;;6.20;43.10;;;;;;5039836;28;20502;-73
2021/01/30 04:00:27;;;;;;;0.65;0.50;;;6.20;49.40;;;;;;5046647;28;20486;-73
2021/01/30 04:02:55;;;;;;;0.40;0.40;;;6.30;47.30;;;;;;5044842;28;20218;-74
2021/01/30 04:05:25;;;;;;;0.40;0.40;;;6.30;41.10;;;;;;5043653;28;20499;-74
2021/01/30 04:07:54;;;;;;;1.30;0.60;;;6.30;41.80;;;;;;5042893;28;21043;-74
2021/01/30 04:10:25;;;;;;;1.07;0.53;;;6.20;47.50;;;;;;5044539;28;20525;-74
2021/01/30 04:12:53;;;;;;;1.30;0.40;;;6.30;50.00;;;;;;5042114;28;20976;-73
2021/01/30 04:15:24;;;;;;;1.02;0.60;;;6.30;34.40;;;;;;5044909;28;20466;-74
2021/01/30 04:17:51;;;;;;;2.45;0.50;;;6.20;39.70;;;;;;5044834;28;20228;-74
2021/01/30 04:20:19;;;;;;;0.70;0.50;;;6.20;35.30;;;;;;5042064;28;20230;-74
2021/01/30 04:22:47;;;;;;;0.80;0.50;;;6.20;35.70;;;;;;5039767;28;20481;-74
2021/01/30 04:25:16;;;;;;;1.70;0.43;;;6.20;29.10;;;;;;5044679;28;20472;-73
2021/01/30 04:27:44;;;;;;;0.70;0.70;;;6.20;30.50;;;;;;5040490;28;20475;-74
2021/01/30 04:30:14;;;;;;;0.60;0.60;;;6.30;25.50;;;;;;5040835;28;20531;-74
2021/01/30 04:32:42;;;;;;;0.90;0.40;;;6.20;30.30;;;;;;5039692;28;20484;-74
2021/01/30 04:35:11;;;;;;;1.33;0.50;;;6.20;35.70;;;;;;5042210;28;21169;-73
2021/01/30 04:37:38;;;;;;;2.40;0.60;;;6.30;31.70;;;;;;5041093;28;20539;-74
2021/01/30 04:40:08;;;;;;;1.37;0.70;;;6.40;30.10;;;;;;5042870;28;20523;-73
2021/01/30 04:42:41;;;;;;;0.97;0.50;;;6.50;16.90;;;;;;5043717;28;20480;-73
2021/01/30 04:45:14;;;;;;;3.77;0.60;;;6.40;18.40;;;;;;5045692;28;20456;-73
2021/01/30 04:47:49;;;;;;;1.03;0.60;;;6.30;25.40;;;;;;5037133;28;20487;-73
2021/01/30 04:50:27;;;;;;;1.03;0.50;;;6.30;25.20;;;;;;5036550;28;20858;-74
2021/01/30 04:53:02;;;;;;;1.70;0.60;;;6.30;21.60;;;;;;5037061;28;20480;-73
2021/01/30 04:55:39;;;;;;;1.13;0.70;;;6.30;19.10;;;;;;5042169;28;20474;-74
2021/01/30 04:58:14;;;;;;;1.27;0.67;;;6.30;5.60;;;;;;5035061;28;21329;-74
2021/01/30 05:00:51;;;;;;;2.85;0.80;;;6.30;2.20;;;;;;5036611;28;20496;-73
2021/01/30 05:03:41;;;;;;;1.50;0.70;;;6.30;1.00;;;;;;5036857;28;20258;-74
2021/01/30 05:06:12;;;;;;;3.55;0.80;;;6.30;1.00;;;;;;5035671;28;20639;-73
2021/01/30 05:08:44;;;;;;;1.50;0.70;;;6.30;1.00;;;;;;5038430;28;21061;-73
2021/01/30 05:11:16;;;;;;;1.75;0.80;;;6.30;1.00;;;;;;5044721;28;20471;-74
2021/01/30 05:13:50;;;;;;;1.67;0.70;;;6.30;1.00;;;;;;5046487;28;20207;-74
2021/01/30 05:16:23;;;;;;;1.87;0.80;;;6.30;1.00;;;;;;5043819;28;20215;-74
2021/01/30 05:18:58;;;;;;;2.20;0.77;;;6.40;1.00;;;;;;5036388;28;20487;-75
2021/01/30 05:21:36;;;;;;;4.13;0.80;;;6.20;1.00;;;;;;5037817;28;20469;-74
2021/01/30 05:24:03;;;;;;;2.38;0.95;;;6.20;1.00;;;;;;5037644;28;20215;-74
2021/01/30 05:26:43;;;;;;;5.00;1.03;;;6.10;1.00;;;;;;5046650;28;20212;-73
2021/01/30 05:29:14;;;;;;;3.43;0.80;;;6.10;1.00;;;;;;5037282;28;20461;-73
2021/01/30 05:31:51;;;;;;;1.13;0.97;;;6.10;1.00;;;;;;5038294;28;20471;-73
2021/01/30 05:34:25;;;;;;;1.43;1.03;;;6.10;1.00;;;;;;5044231;28;20471;-74
2021/01/30 05:36:59;;;;;;;2.20;0.90;;;6.20;1.00;;;;;;5044063;28;20550;-73
2021/01/30 05:39:38;;;;;;;6.90;1.03;;;6.10;1.00;;;;;;5033532;28;20584;-73
2021/01/30 05:42:11;;;;;;;6.10;1.57;;;6.10;1.00;;;;;;5035289;28;20480;-74
2021/01/30 05:44:46;;;;;;;2.73;1.00;;;6.10;1.00;;;;;;5041938;28;20484;-73
2021/01/30 05:47:17;;;;;;;9.17;1.40;;;6.10;1.00;;;;;;5047626;28;20493;-74
2021/01/30 05:49:56;;;;;;;3.97;1.55;;;6.10;1.00;;;;;;5036391;28;20837;-73
2021/01/30 05:52:28;;;;;;;2.37;1.10;;;6.10;1.00;;;;;;5036552;28;20685;-73
2021/01/30 05:54:56;;;;;;;2.17;1.05;;;6.10;1.00;;;;;;5045903;28;20483;-74
2021/01/30 05:57:23;;;;;;;3.10;1.00;;;6.20;1.00;;;;;;5042501;28;20247;-74
2021/01/30 05:59:54;;;;;;;2.50;1.17;;;6.20;1.00;;;;;;5038470;28;20932;-73
2021/01/30 06:02:23;;;;;;;7.43;1.27;;;6.10;1.00;;;;;;5040334;28;20527;-74
2021/01/30 06:04:52;;;;;;;4.40;1.33;;;6.10;1.00;;;;;;5047331;28;20463;-73
2021/01/30 06:07:33;;;;;;;2.50;1.20;;;6.10;1.00;;;;;;5046589;28;20500;-74
2021/01/30 06:10:19;;;;;;;6.68;1.05;;;6.10;1.00;;;;;;5044467;28;20517;-74
2021/01/30 06:12:46;;;;;;;5.60;1.13;;;6.10;1.00;;;;;;5048146;28;20232;-73
2021/01/30 06:15:17;;;;;;;3.73;1.20;;;6.00;1.00;;;;;;5046846;28;20471;-74
2021/01/30 06:17:44;;;;;;;5.80;1.60;;;6.10;1.00;;;;;;5041553;28;20488;-74
2021/01/30 06:20:19;;;;;;;3.77;1.30;;;6.10;1.00;;;;;;5039000;28;20487;-73
2021/01/30 06:23:06;;;;;;;6.57;1.45;;;6.10;1.00;;;;;;5040561;28;20467;-74
2021/01/30 06:25:36;;;;;;;7.63;1.30;;;6.10;1.00;;;;;;5047505;28;20724;-73
2021/01/30 06:28:07;;;;;;;3.63;1.50;;;6.10;1.00;;;;;;5046215;28;20247;-74
2021/01/30 06:30:38;;;;;;;2.73;1.30;;;6.10;1.00;;;;;;5044196;28;20503;-74
2021/01/30 06:33:19;;;;;;;3.55;1.17;;;6.10;1.00;;;;;;5045096;28;20998;-74
2021/01/30 06:35:47;;;;;;;4.07;1.20;;;6.20;1.00;;;;;;5045358;28;20600;-74
2021/01/30 06:38:19;;;;;;;6.27;1.53;;;6.20;1.00;;;;;;5044738;28;20671;-72
2021/01/30 06:40:55;;;;;;;9.68;1.65;;;6.30;1.00;;;;;;5040852;28;20490;-74
2021/01/30 06:43:33;;;;;;;6.93;1.17;;;6.30;1.00;;;;;;5047066;28;20211;-74
2021/01/30 06:46:08;;;;;;;1.97;1.30;;;6.20;1.00;;;;;;5045579;28;20266;-73
2021/01/30 06:48:40;;;;;;;4.27;1.23;;;6.10;1.00;;;;;;5043051;28;20525;-74
2021/01/30 06:51:34;;;;;;;9.45;1.20;;;6.00;1.00;;;;;;5043848;28;21228;-73
2021/01/30 06:54:18;;;;;;;4.55;1.30;;;6.10;1.00;;;;;;5027145;28;20274;-74
2021/01/30 06:56:54;;;;;;;7.27;1.00;;;6.00;1.00;;;;;;5043633;28;20294;-73
2021/01/30 06:59:28;;;;;;;3.43;1.30;;;6.00;1.00;;;;;;5041890;28;20484;-73
2021/01/30 07:01:58;;;;;;;2.30;1.00;;;6.00;1.00;;;;;;5046781;28;20465;-74
2021/01/30 07:05:23;;;;;;;5.70;1.00;;;6.00;1.00;;;;;;5045961;28;20675;-73
2021/01/30 07:08:15;;;;;;;5.87;1.10;;;6.00;1.00;;;;;;5006413;28;21389;-73
2021/01/30 07:10:52;;;;;;;3.40;1.17;;;6.00;1.00;;;;;;5047197;28;20464;-73
2021/01/30 07:13:43;;;;;;;2.70;1.15;;;6.00;1.00;;;;;;5037250;28;21276;-73
2021/01/30 07:16:20;;;;;;;3.67;1.25;;;6.10;1.00;;;;;;5041611;28;20556;-74
2021/01/30 07:18:57;;;;;;;5.18;1.83;;;6.10;1.00;;;;;;5044493;28;20248;-74
2021/01/30 07:21:28;;;;;;;3.03;1.03;;;6.10;1.00;;;;;;5044315;28;20226;-74
2021/01/30 07:24:24;;;;;;;4.03;1.23;;;6.10;1.00;;;;;;5039920;28;20456;-74
2021/01/30 07:26:55;;;;;;;3.47;1.20;;;6.10;1.00;;;;;;5037033;28;20618;-73
2021/01/30 07:29:39;;;;;;;5.60;2.28;;;6.20;1.00;;;;;;5046410;28;20605;-73
2021/01/30 07:32:14;;;;;;;4.30;1.30;;;6.20;1.00;;;;;;5042717;28;20582;-76
2021/01/30 07:35:10;;;;;;;4.13;1.20;;;6.20;1.00;;;;;;5044414;28;20471;-76
2021/01/30 07:37:48;;;;;;;2.20;1.10;;;6.40;1.00;;;;;;5042854;28;20281;-76
2021/01/30 07:40:20;;;;;;;4.53;1.37;;;6.60;1.00;;;;;;5044245;28;20483;-73
2021/01/30 07:42:55;;;;;;;3.63;1.10;;;6.60;1.00;;;;;;5042900;28;20817;-74
2021/01/30 07:45:26;;;;;;;3.10;1.50;;;6.50;1.00;;;;;;5045546;28;20475;-73
2021/01/30 07:48:05;;;;;;;4.00;1.07;;;6.50;1.00;;;;;;5045939;28;20579;-74
2021/01/30 07:50:34;;;;;;;9.00;1.80;;;6.60;1.00;;;;;;5045983;28;21054;-73
2021/01/30 07:53:07;;;;;;;5.27;1.30;;;6.60;1.00;;;;;;5046837;28;20618;-74
2021/01/30 07:55:35;;;;;;;4.97;1.40;;;6.60;1.00;;;;;;5045509;28;20514;-73
2021/01/30 07:58:34;;;;;;;5.70;1.33;;;6.60;1.00;;;;;;5046585;28;20910;-73
2021/01/30 08:01:14;;;;;;;5.83;1.77;;;6.70;1.00;;;;;;5040595;28;20834;-73
2021/01/30 08:04:16;;;;;;;2.90;1.93;;;6.80;1.00;;;;;;5042798;28;20463;-74
2021/01/30 08:06:58;;;;;;;5.60;1.53;;;6.90;1.00;;;;;;5040239;28;20461;-74
2021/01/30 08:09:30;;;;;;;6.60;1.30;;;6.80;1.00;;;;;;5034358;28;20473;-73
2021/01/30 08:12:06;;;;;;;4.40;1.30;;;6.80;1.00;;;;;;5037561;28;20482;-73
2021/01/30 08:14:45;;;;;;;4.10;1.27;;;6.80;1.00;;;;;;5034853;28;20470;-72
2021/01/30 08:17:40;;;;;;;4.90;1.30;;;6.80;1.00;;;;;;5033247;28;20500;-73
2021/01/30 08:20:12;;;;;;;4.20;1.43;;;6.70;1.00;;;;;;5037692;28;20511;-74
2021/01/30 08:22:45;;;;;;;4.93;1.93;;;6.80;1.00;;;;;;5038591;28;20503;-74
2021/01/30 08:25:17;;;;;;;4.53;1.33;;;6.90;1.00;;;;;;5033570;28;20558;-73
2021/01/30 08:27:53;;;;;;;8.60;1.80;;;6.80;1.00;;;;;;5041166;28;20547;-73
2021/01/30 08:30:23;;;;;;;7.60;1.23;;;6.80;1.00;;;;;;5039914;28;20500;-74
2021/01/30 08:32:58;;;;;;;3.97;1.57;;;6.80;1.00;;;;;;5032451;28;21284;-74
2021/01/30 08:35:51;;;;;;;9.73;1.37;;;6.80;1.00;;;;;;5035974;28;20464;-74
2021/01/30 08:38:35;;;;;;;5.60;1.38;;;6.80;1.00;;;;;;5036074;28;20469;-74
2021/01/30 08:41:39;;;;;;;2.70;1.50;;;6.80;1.00;;;;;;5032208;28;20227;-75
2021/01/30 08:44:17;;;;;;;6.70;1.63;;;6.90;1.00;;;;;;5028709;28;20465;-75
2021/01/30 08:46:47;;;;;;;5.20;1.43;;;6.90;1.00;;;;;;5032402;28;20462;-75
2021/01/30 08:49:23;;;;;;;6.50;1.30;;;6.90;1.00;;;;;;5029285;28;21216;-74
2021/01/30 08:52:22;;;;;;;4.53;1.60;;;6.80;1.00;;;;;;5033525;28;20501;-75
2021/01/30 08:54:50;;;;;;;3.53;1.30;;;6.80;1.00;;;;;;5030597;28;21216;-75
2021/01/30 08:57:43;;;;;;;5.40;1.80;;;6.90;1.00;;;;;;5036041;28;20498;-75
2021/01/30 09:00:42;;;;;;;3.93;1.23;;;6.90;1.00;;;;;;5030019;28;21053;-74
2021/01/30 09:03:09;;;;;;;4.33;1.97;;;6.90;1.00;;;;;;5029331;28;20484;-75
2021/01/30 09:05:43;;;;;;;2.70;1.13;;;6.80;1.00;;;;;;5031741;28;20478;-74
2021/01/30 09:08:36;;;;;;;3.73;1.03;;;6.80;1.00;;;;;;5041249;28;20553;-74
2021/01/30 09:11:35;;;;;;;4.67;1.50;;;6.80;1.00;;;;;;5037610;28;20455;-74
2021/01/30 09:14:27;;;;;;;6.80;2.10;;;7.00;1.00;;;;;;5033059;28;20486;-74
2021/01/30 09:17:23;;;;;;;6.17;1.80;;;7.20;1.00;;;;;;5039134;28;20312;-74
2021/01/30 09:20:02;;;;;;;7.57;2.07;;;7.40;1.00;;;;;;5039431;28;20479;-74
2021/01/30 09:22:45;;;;;;;7.20;1.77;;;7.60;1.00;;;;;;5031616;28;20466;-75
2021/01/30 09:25:21;;;;;;;5.17;1.63;;;7.50;99.90;;;;;;5033953;28;20519;-76
2021/01/30 09:27:58;;;;;;;8.77;2.00;;;7.50;1.00;;;;;;5031556;28;20473;-77
2021/01/30 09:30:40;;;;;;;8.60;1.53;;;7.40;1.00;;;;;;5032001;28;20213;-76
2021/01/30 09:33:21;;;;;;;6.90;1.63;;;7.40;1.00;;;;;;5042575;28;20891;-76
2021/01/30 09:35:49;;;;;;;4.10;1.80;;;7.40;1.00;;;;;;5035628;28;20467;-76
2021/01/30 09:38:23;;;;;;;8.53;1.80;;;7.60;1.00;;;;;;5036078;28;20488;-74
2021/01/30 09:41:04;;;;;;;6.60;1.80;;;7.70;1.00;;;;;;5036071;28;20842;-75
2021/01/30 09:43:31;;;;;;;4.93;1.70;;;7.70;99.90;;;;;;5034920;28;20529;-75
2021/01/30 09:46:00;;;;;;;7.20;1.70;;;7.70;99.90;;;;;;5037328;28;20475;-74
2021/01/30 09:48:29;;;;;;;2.40;1.57;;;7.70;1.00;;;;;;5038317;28;21099;-76
2021/01/30 09:50:59;;;;;;;7.53;1.97;;;7.70;99.90;;;;;;5036355;28;20836;-74
2021/01/30 09:53:31;;;;;;;5.85;2.10;;;7.80;99.90;;;;;;5035349;28;20469;-72
2021/01/30 09:56:08;;;;;;;6.60;1.70;;;7.90;99.90;;;;;;5037864;28;20574;-73
2021/01/30 09:58:37;;;;;;;5.40;1.70;;;7.80;99.90;;;;;;5038828;28;20533;-73
2021/01/30 10:01:08;;;;;;;3.50;1.90;;;7.70;1.00;;;;;;5037820;28;20493;-72
2021/01/30 10:03:40;;;;;;;7.20;1.50;;;7.80;1.00;;;;;;5036778;28;20859;-72
2021/01/30 10:06:13;;;;;;;4.77;1.70;;;7.60;1.00;;;;;;5036869;28;20543;-73
2021/01/30 10:08:42;;;;;;;5.27;1.50;;;7.60;1.00;;;;;;5040429;28;20886;-74
2021/01/30 10:11:15;;;;;;;4.83;1.97;;;7.60;1.00;;;;;;5037685;28;20474;-76
2021/01/30 10:13:45;;;;;;;4.97;1.43;;;7.70;1.00;;;;;;5037740;28;20991;-75
2021/01/30 10:16:16;;;;;;;7.80;2.50;;;7.80;1.00;;;;;;5036356;28;20563;-74
2021/01/30 10:18:48;;;;;;;6.80;2.53;;;7.90;1.00;;;;;;5040572;28;20545;-72
2021/01/30 10:21:29;;;;;;;8.10;1.57;;;7.90;1.00;;;;;;5036723;28;20496;-73
2021/01/30 10:23:56;;;;;;;7.63;2.70;;;7.80;1.00;;;;;;5034627;28;20474;-72
2021/01/30 10:26:25;;;;;;;3.83;1.43;;;7.90;1.00;;;;;;5031936;28;21180;-72
2021/01/30 10:28:56;;;;;;;3.80;2.13;;;8.00;1.00;;;;;;5036845;28;21014;-73
2021/01/30 10:31:27;;;;;;;4.93;1.97;;;8.10;1.00;;;;;;5035304;28;20460;-73
2021/01/30 10:34:02;;;;;;;3.57;1.40;;;8.20;1.00;;;;;;5037430;28;20475;-72
2021/01/30 10:36:32;;;;;;;6.10;1.67;;;8.40;1.00;;;;;;5057973;28;20533;-71
2021/01/30 10:39:01;;;;;;;4.53;2.00;;;8.50;1.00;;;;;;5057987;28;20495;-72
2021/01/30 10:41:30;;;;;;;8.13;3.70;;;8.50;1.00;;;;;;5048516;28;20492;-72
2021/01/30 10:44:01;;;;;;;4.50;2.00;;;8.40;1.00;;;;;;5049614;28;20466;-72
2021/01/30 10:46:34;;;;;;;7.23;2.37;;;8.50;1.00;;;;;;5049882;28;20464;-72
2021/01/30 10:49:05;;;;;;;4.30;1.53;;;8.50;1.00;;;;;;5046957;28;20534;-72
2021/01/30 10:51:36;;;;;;;6.47;1.73;;;8.50;1.00;;;;;;5049555;28;20457;-72
2021/01/30 10:54:17;;;;;;;5.07;1.60;;;8.60;1.00;;;;;;5048082;28;20476;-71
2021/01/30 10:56:44;;;;;;;7.07;1.90;;;8.70;1.00;;;;;;5049718;28;21241;-73
2021/01/30 10:59:22;;;;;;;8.10;1.90;;;8.70;1.00;;;;;;5048562;28;20484;-72
2021/01/30 11:01:50;;;;;;;6.60;2.13;;;8.50;1.00;;;;;;5047579;28;20872;-72
2021/01/30 11:04:26;;;;;;;6.77;2.60;;;8.20;1.00;;;;;;5045758;28;20596;-72
2021/01/30 11:06:59;;;;;;;14.17;3.50;;;8.10;1.00;;;;;;5047832;28;20482;-73
2021/01/30 11:09:31;;;;;;;7.37;3.00;;;8.10;1.00;;;;;;5047026;28;20544;-72
2021/01/30 11:12:14;;;;;;;13.63;3.10;;;8.20;1.00;;;;;;5049011;28;20527;-72
2021/01/30 11:14:42;;;;;;;9.33;2.40;;;8.40;1.00;;;;;;5046248;28;20921;-72
2021/01/30 11:17:19;;;;;;;5.03;2.17;;;8.60;1.00;;;;;;5032400;28;20526;-72
2021/01/30 11:19:47;;;;;;;6.20;1.50;;;8.80;1.00;;;;;;5046770;28;20461;-71
2021/01/30 11:22:17;;;;;;;7.43;2.43;;;8.80;1.00;;;;;;5046937;28;20462;-73
2021/01/30 11:24:49;;;;;;;9.50;3.27;;;8.90;1.00;;;;;;5047448;28;20454;-72
2021/01/30 11:27:29;;;;;;;4.47;1.63;;;8.80;1.00;;;;;;5048945;28;20494;-72
2021/01/30 11:29:56;;;;;;;5.07;1.50;;;8.60;1.00;;;;;;5046230;28;20466;-72
2021/01/30 11:32:25;;;;;;;5.37;1.43;;;8.40;1.00;;;;;;5045932;28;20820;-71
2021/01/30 11:34:56;;;;;;;2.80;1.30;;;8.20;1.00;;;;;;5043203;28;20462;-72
2021/01/30 11:37:26;;;;;;;6.70;1.70;;;8.30;1.00;;;;;;5058656;28;20971;-73
2021/01/30 11:39:53;;;;;;;3.80;1.30;;;8.30;1.00;;;;;;5048454;28;21018;-72
2021/01/30 11:42:20;;;;;;;4.53;1.60;;;8.30;1.00;;;;;;5062274;28;20454;-72
2021/01/30 11:44:48;;;;;;;4.30;1.52;;;8.50;1.00;;;;;;5055397;28;20942;-72
2021/01/30 11:47:15;;;;;;;6.30;1.37;;;8.70;1.00;;;;;;5034882;28;20220;-73
2021/01/30 11:49:44;;;;;;;6.10;1.40;;;8.80;1.00;;;;;;5035675;28;20465;-71
2021/01/30 11:52:17;;;;;;;5.23;1.60;;;8.60;1.00;;;;;;5030948;28;20463;-71
2021/01/30 11:54:45;;;;;;;3.30;1.10;;;8.60;1.00;;;;;;5030954;28;20478;-71
2021/01/30 11:57:12;;;;;;;4.90;1.40;;;8.30;1.00;;;;;;5044211;28;20518;-72
2021/01/30 11:59:39;;;;;;;5.13;1.40;;;8.10;1.00;;;;;;5045788;28;21050;-72
2021/01/30 12:02:10;;;;;;;3.07;0.90;;;8.00;1.00;;;;;;5043178;28;20504;-71
2021/01/30 12:04:37;;;;;;;1.87;0.90;;;8.10;1.00;;;;;;5045613;28;20479;-74
2021/01/30 12:07:05;;;;;;;1.23;0.90;;;8.00;1.00;;;;;;5043410;28;20486;-73
2021/01/30 12:09:33;;;;;;;2.00;0.80;;;8.00;1.00;;;;;;5038363;28;20474;-72
2021/01/30 12:12:00;;;;;;;4.03;1.30;;;7.90;1.00;;;;;;5037719;28;20932;-72
2021/01/30 12:14:27;;;;;;;1.53;1.00;;;8.00;1.00;;;;;;5037949;28;20593;-73
2021/01/30 12:16:56;;;;;;;2.77;1.50;;;8.10;1.00;;;;;;5036454;28;20478;-74
2021/01/30 12:19:24;;;;;;;5.67;1.33;;;8.20;1.00;;;;;;5033895;28;20469;-71
2021/01/30 12:21:52;;;;;;;2.23;1.10;;;8.10;1.00;;;;;;5034430;28;20487;-71
2021/01/30 12:24:20;;;;;;;3.47;1.47;;;8.10;1.00;;;;;;5037720;28;20564;-72
2021/01/30 12:26:48;;;;;;;5.20;1.30;;;7.80;1.00;;;;;;5049685;28;20462;-71
2021/01/30 12:29:15;;;;;;;1.10;1.00;;;7.80;1.00;;;;;;5038103;28;20907;-72
2021/01/30 12:31:42;;;;;;;2.00;0.80;;;7.80;1.00;;;;;;5039924;28;20466;-72
2021/01/30 12:34:09;;;;;;;1.43;1.20;;;7.70;1.00;;;;;;5044337;28;20471;-72
2021/01/30 12:36:37;;;;;;;2.23;0.90;;;7.70;1.00;;;;;;5044122;28;21000;-71
2021/01/30 12:39:05;;;;;;;6.33;1.40;;;7.50;1.00;;;;;;5048097;28;21048;-71
2021/01/30 12:41:32;;;;;;;1.93;1.20;;;7.40;1.00;;;;;;5044586;28;20493;-72
2021/01/30 12:44:00;;;;;;;3.50;1.20;;;7.40;1.00;;;;;;5047502;28;20530;-72
2021/01/30 12:46:42;;;;;;;3.20;1.20;;;7.40;1.00;;;;;;5042557;28;20458;-72
2021/01/30 12:49:10;;;;;;;4.40;1.10;;;7.50;1.00;;;;;;5035258;28;20462;-72
2021/01/30 12:51:39;;;;;;;4.43;1.00;;;7.50;1.00;;;;;;5042169;28;20834;-72
2021/01/30 12:54:06;;;;;;;1.83;1.10;;;7.70;1.00;;;;;;5037417;28;20499;-72
2021/01/30 12:56:34;;;;;;;4.20;1.40;;;7.60;1.00;;;;;;5039333;28;20470;-71
2021/01/30 12:59:02;;;;;;;5.33;1.60;;;7.60;1.00;;;;;;5042895;28;20457;-71
2021/01/30 13:01:30;;;;;;;4.13;1.30;;;7.70;1.00;;;;;;5042298;28;20491;-71
2021/01/30 13:04:03;;;;;;;2.03;1.10;;;7.70;1.00;;;;;;5042221;28;21191;-71
2021/01/30 13:06:30;;;;;;;4.43;1.30;;;7.60;1.00;;;;;;5044264;28;20457;-71
2021/01/30 13:08:58;;;;;;;4.33;1.13;;;7.60;1.00;;;;;;5028842;28;20870;-71
2021/01/30 13:11:25;;;;;;;4.10;1.67;;;7.60;16.10;;;;;;5041857;28;20478;-71
2021/01/30 13:13:52;;;;;;;3.90;1.30;;;7.60;28.50;;;;;;5033564;28;20467;-71
2021/01/30 13:16:20;;;;;;;4.33;1.37;;;7.30;55.90;;;;;;5044350;28;20597;-71
2021/01/30 13:18:47;;;;;;;4.40;2.23;;;7.20;74.10;;;;;;5046559;28;20472;-72
2021/01/30 13:21:14;;;;;;;3.93;1.60;;;7.10;81.10;;;;;;5042530;28;20484;-71
2021/01/30 13:23:41;;;;;;;2.70;1.40;;;7.20;86.90;;;;;;5047821;28;20514;-72
2021/01/30 13:26:08;;;;;;;4.53;1.83;;;7.20;71.10;;;;;;5043218;28;20469;-71
2021/01/30 13:28:36;;;;;;;4.50;1.70;;;7.20;58.60;;;;;;5044199;28;20475;-72
2021/01/30 13:31:03;;;;;;;2.27;1.50;;;7.20;53.10;;;;;;5033462;28;20453;-71
2021/01/30 13:33:31;;;;;;;2.53;1.20;;;7.20;62.80;;;;;;5043651;28;20893;-72
2021/01/30 13:35:58;;;;;;;5.33;1.53;;;7.40;60.30;;;;;;5037004;28;20531;-72